Time;durP1;ratioP1;P1;durP2;ratioP2;P2;SDS_P1;SDS_P2;PMS_P1;PMS_P2;Temp;Humidity;BMP_temperature;BMP_pressure;BME280_temperature;BME280_humidity;BME280_pressure;Samples;Min_cycle;Max_cycle;Signal;HPM_P1;HPM_P2
2021/06/14 00:01:26;;;;;;;4.37;2.90;;;;;;;;;;5049908;28;20515;-65
2021/06/14 00:03:53;;;;;;;5.43;2.83;;;;;;;;;;5051907;28;20950;-65
2021/06/14 00:06:20;;;;;;;6.37;2.83;;;;;;;;;;5050073;28;20474;-64
2021/06/14 00:08:47;;;;;;;4.67;2.73;;;;;;;;;;5050630;28;20466;-65
2021/06/14 00:11:14;;;;;;;7.60;3.23;;;;;;;;;;5051773;28;20850;-65
2021/06/14 00:13:41;;;;;;;5.20;2.77;;;;;;;;;;5052129;28;20459;-65
2021/06/14 00:16:10;;;;;;;5.20;2.80;;;;;;;;;;5050989;28;20455;-65
2021/06/14 00:18:37;;;;;;;5.30;2.80;;;;;;;;;;5051679;28;20469;-65
2021/06/14 00:21:06;;;;;;;3.40;2.47;;;;;;;;;;5050039;28;20490;-64
2021/06/14 00:23:33;;;;;;;4.20;2.93;;;;;;;;;;5050751;28;20472;-64
2021/06/14 00:26:01;;;;;;;7.73;3.07;;;;;;;;;;5049387;28;20470;-64
2021/06/14 00:28:28;;;;;;;7.83;3.80;;;;;;;;;;5050085;28;20460;-64
2021/06/14 00:30:55;;;;;;;4.97;3.00;;;;;;;;;;5049638;28;20495;-65
2021/06/14 00:33:24;;;;;;;6.33;2.90;;;;;;;;;;5049422;28;20847;-64
2021/06/14 00:35:51;;;;;;;4.33;3.10;;;;;;;;;;5050383;28;20996;-64
2021/06/14 00:38:18;;;;;;;4.37;3.17;;;;;;;;;;5049964;28;20556;-64
2021/06/14 00:40:46;;;;;;;5.13;3.50;;;;;;;;;;5051215;28;20487;-65
2021/06/14 00:43:13;;;;;;;5.20;3.40;;;;;;;;;;5050282;28;20486;-64
2021/06/14 00:45:41;;;;;;;5.13;3.00;;;;;;;;;;5050801;28;20936;-63
2021/06/14 00:48:08;;;;;;;4.10;3.13;;;;;;;;;;5050546;28;20463;-63
2021/06/14 00:50:40;;;;;;;4.03;3.07;;;;;;;;;;5050517;28;20471;-64
2021/06/14 00:53:08;;;;;;;3.80;3.20;;;;;;;;;;5049812;28;20487;-64
2021/06/14 00:55:36;;;;;;;3.90;2.97;;;;;;;;;;5045954;28;20852;-64
2021/06/14 00:58:03;;;;;;;4.20;2.93;;;;;;;;;;5049691;28;20843;-64
2021/06/14 01:00:31;;;;;;;4.87;3.17;;;;;;;;;;5051337;28;20995;-65
2021/06/14 01:02:58;;;;;;;3.83;2.90;;;;;;;;;;5050106;28;20456;-65
2021/06/14 01:05:26;;;;;;;4.57;3.10;;;;;;;;;;5046500;28;20821;-64
2021/06/14 01:07:54;;;;;;;4.70;3.17;;;;;;;;;;5045061;28;20467;-64
2021/06/14 01:10:21;;;;;;;3.23;2.93;;;;;;;;;;5049752;28;20494;-64
2021/06/14 01:12:54;;;;;;;4.87;3.37;;;;;;;;;;5050008;28;20494;-65
2021/06/14 01:15:22;;;;;;;3.97;3.20;;;;;;;;;;5049378;28;20839;-65
2021/06/14 01:17:51;;;;;;;6.57;3.37;;;;;;;;;;5049805;28;20471;-65
2021/06/14 01:20:29;;;;;;;5.00;3.07;;;;;;;;;;5040239;28;20824;-64
2021/06/14 01:23:13;;;;;;;6.07;3.33;;;;;;;;;;5051379;28;20432;-64
2021/06/14 01:25:42;;;;;;;6.80;3.13;;;;;;;;;;5049875;28;20466;-64
2021/06/14 01:28:11;;;;;;;4.40;2.70;;;;;;;;;;5050293;28;20455;-65
2021/06/14 01:30:39;;;;;;;6.43;3.63;;;;;;;;;;5050492;28;20498;-64
2021/06/14 01:33:08;;;;;;;3.50;3.00;;;;;;;;;;5049767;28;20483;-65
2021/06/14 01:35:38;;;;;;;5.30;3.40;;;;;;;;;;5048706;28;20460;-64
2021/06/14 01:38:05;;;;;;;4.43;3.20;;;;;;;;;;5049720;28;20463;-65
2021/06/14 01:40:33;;;;;;;5.30;3.70;;;;;;;;;;5052371;28;20479;-64
2021/06/14 01:43:01;;;;;;;3.50;3.00;;;;;;;;;;5054997;28;20439;-64
2021/06/14 01:45:30;;;;;;;3.97;3.03;;;;;;;;;;5052339;28;20947;-65
2021/06/14 01:47:58;;;;;;;6.23;3.30;;;;;;;;;;5054705;28;20447;-65
2021/06/14 01:50:27;;;;;;;5.60;3.43;;;;;;;;;;5051744;28;20491;-65
2021/06/14 01:52:54;;;;;;;4.47;3.70;;;;;;;;;;5050963;28;21049;-64
2021/06/14 01:55:22;;;;;;;5.10;3.60;;;;;;;;;;5052784;28;20471;-66
2021/06/14 01:57:49;;;;;;;4.43;3.53;;;;;;;;;;5053667;28;20467;-64
2021/06/14 02:00:17;;;;;;;5.17;3.80;;;;;;;;;;5052722;28;20502;-65
2021/06/14 02:02:46;;;;;;;6.83;3.80;;;;;;;;;;5053971;28;20448;-64
2021/06/14 02:05:14;;;;;;;3.93;3.00;;;;;;;;;;5050733;28;20474;-64
2021/06/14 02:07:42;;;;;;;5.53;3.30;;;;;;;;;;5052338;28;20476;-64
2021/06/14 02:10:10;;;;;;;6.37;3.67;;;;;;;;;;5053745;28;20489;-64
2021/06/14 02:12:39;;;;;;;4.57;3.53;;;;;;;;;;5052843;28;20479;-64
2021/06/14 02:15:07;;;;;;;4.20;3.07;;;;;;;;;;5054515;28;20458;-64
2021/06/14 02:17:35;;;;;;;7.30;3.60;;;;;;;;;;5051626;28;21225;-65
2021/06/14 02:20:05;;;;;;;7.43;3.33;;;;;;;;;;5053294;28;20483;-65
2021/06/14 02:22:32;;;;;;;3.93;3.50;;;;;;;;;;5051965;28;20463;-65
2021/06/14 02:24:59;;;;;;;4.67;3.20;;;;;;;;;;5052102;28;20854;-65
2021/06/14 02:27:26;;;;;;;5.70;3.37;;;;;;;;;;5052935;28;20443;-65
2021/06/14 02:29:53;;;;;;;5.03;3.33;;;;;;;;;;5053982;28;20462;-65
2021/06/14 02:32:21;;;;;;;4.70;3.70;;;;;;;;;;5053776;28;20479;-65
2021/06/14 02:34:48;;;;;;;4.07;3.20;;;;;;;;;;5052074;28;20471;-64
2021/06/14 02:37:19;;;;;;;4.97;3.63;;;;;;;;;;5051606;28;20474;-65
2021/06/14 02:39:48;;;;;;;4.40;4.00;;;;;;;;;;5053369;28;20456;-65
2021/06/14 02:42:15;;;;;;;4.70;3.70;;;;;;;;;;5052935;28;20463;-65
2021/06/14 02:44:43;;;;;;;6.77;3.67;;;;;;;;;;5053764;28;20444;-65
2021/06/14 02:47:11;;;;;;;6.30;3.30;;;;;;;;;;5051291;28;20467;-64
2021/06/14 02:49:39;;;;;;;5.87;4.00;;;;;;;;;;5053426;28;20448;-64
2021/06/14 02:52:07;;;;;;;6.33;3.40;;;;;;;;;;5050716;28;20489;-64
2021/06/14 02:54:38;;;;;;;8.23;3.60;;;;;;;;;;5052303;28;20470;-64
2021/06/14 02:57:09;;;;;;;4.53;3.17;;;;;;;;;;5051075;28;20466;-64
2021/06/14 02:59:36;;;;;;;6.90;3.10;;;;;;;;;;5053251;28;20440;-64
2021/06/14 03:02:04;;;;;;;4.30;3.37;;;;;;;;;;5051041;28;21002;-64
2021/06/14 03:04:33;;;;;;;3.50;3.20;;;;;;;;;;5052809;28;20448;-62
2021/06/14 03:07:01;;;;;;;4.13;2.73;;;;;;;;;;5032728;28;20445;-64
2021/06/14 03:09:29;;;;;;;4.27;3.07;;;;;;;;;;5033305;28;20446;-64
2021/06/14 03:11:57;;;;;;;5.43;3.40;;;;;;;;;;5050395;28;20495;-63
2021/06/14 03:14:25;;;;;;;4.50;2.97;;;;;;;;;;5047599;28;20463;-64
2021/06/14 03:16:52;;;;;;;4.30;3.03;;;;;;;;;;5049816;28;20468;-63
2021/06/14 03:19:22;;;;;;;6.63;3.50;;;;;;;;;;5052932;28;20448;-65
2021/06/14 03:21:49;;;;;;;5.03;3.20;;;;;;;;;;5049139;28;20487;-64
2021/06/14 03:24:17;;;;;;;4.40;3.60;;;;;;;;;;5051887;28;20480;-65
2021/06/14 03:26:45;;;;;;;3.50;2.83;;;;;;;;;;5050165;28;20947;-65
2021/06/14 03:29:18;;;;;;;5.03;3.03;;;;;;;;;;5051369;28;20468;-65
2021/06/14 03:31:46;;;;;;;4.60;3.20;;;;;;;;;;5049278;28;20495;-65
2021/06/14 03:34:14;;;;;;;3.90;3.10;;;;;;;;;;5051698;28;20483;-65
2021/06/14 03:36:42;;;;;;;3.70;2.63;;;;;;;;;;5051528;28;20468;-64
2021/06/14 03:39:09;;;;;;;4.47;3.20;;;;;;;;;;5052437;28;20459;-64
2021/06/14 03:41:42;;;;;;;4.53;3.53;;;;;;;;;;5052520;28;20478;-63
2021/06/14 03:44:09;;;;;;;5.30;3.10;;;;;;;;;;5052484;28;20843;-64
2021/06/14 03:46:38;;;;;;;3.50;2.73;;;;;;;;;;5049973;28;20481;-64
2021/06/14 03:49:05;;;;;;;3.80;2.80;;;;;;;;;;5052602;28;20467;-64
2021/06/14 03:51:32;;;;;;;6.17;3.87;;;;;;;;;;5050599;28;20487;-64
2021/06/14 03:53:59;;;;;;;6.03;3.13;;;;;;;;;;5050178;28;20490;-64
2021/06/14 03:56:27;;;;;;;3.33;2.77;;;;;;;;;;5034355;28;20479;-64
2021/06/14 03:58:54;;;;;;;4.53;3.30;;;;;;;;;;5051250;28;20460;-64
2021/06/14 04:01:22;;;;;;;4.73;3.50;;;;;;;;;;5051069;28;20491;-65
2021/06/14 04:04:02;;;;;;;5.63;3.60;;;;;;;;;;5050820;28;21013;-64
2021/06/14 04:06:29;;;;;;;4.20;2.90;;;;;;;;;;5050876;28;20467;-65
2021/06/14 04:08:57;;;;;;;4.93;3.07;;;;;;;;;;5052445;28;20813;-64
2021/06/14 04:11:24;;;;;;;4.30;2.90;;;;;;;;;;5051688;28;20494;-64
2021/06/14 04:13:52;;;;;;;5.20;3.23;;;;;;;;;;5043713;28;20854;-64
2021/06/14 04:16:19;;;;;;;4.93;2.73;;;;;;;;;;5047725;28;20448;-63
2021/06/14 04:18:47;;;;;;;3.23;2.93;;;;;;;;;;5050453;28;20467;-63
2021/06/14 04:21:15;;;;;;;4.73;3.07;;;;;;;;;;5049078;28;20483;-63
2021/06/14 04:23:42;;;;;;;5.47;3.33;;;;;;;;;;5051961;28;20443;-63
2021/06/14 04:26:09;;;;;;;8.63;4.13;;;;;;;;;;5050643;28;20463;-64
2021/06/14 04:28:37;;;;;;;4.43;2.90;;;;;;;;;;5050971;28;20463;-63
2021/06/14 04:31:04;;;;;;;5.13;2.97;;;;;;;;;;5051787;28;20479;-64
2021/06/14 04:33:31;;;;;;;5.00;3.30;;;;;;;;;;5056581;22;21073;-66
2021/06/14 04:35:58;;;;;;;5.07;3.23;;;;;;;;;;5033686;28;20963;-65
2021/06/14 04:38:26;;;;;;;4.77;3.27;;;;;;;;;;5036975;28;20475;-64
2021/06/14 04:40:54;;;;;;;4.30;3.43;;;;;;;;;;5051712;28;20448;-62
2021/06/14 04:43:21;;;;;;;4.90;3.00;;;;;;;;;;5033383;28;21025;-63
2021/06/14 04:45:48;;;;;;;6.90;3.00;;;;;;;;;;5031136;28;20448;-63
2021/06/14 04:48:15;;;;;;;6.73;3.13;;;;;;;;;;5029813;28;20472;-63
2021/06/14 04:50:42;;;;;;;4.27;3.20;;;;;;;;;;5030640;28;20467;-63
2021/06/14 04:53:09;;;;;;;5.13;2.97;;;;;;;;;;5029474;28;20507;-63
2021/06/14 04:55:37;;;;;;;4.57;3.70;;;;;;;;;;5029703;28;20459;-64
2021/06/14 04:58:05;;;;;;;5.10;3.47;;;;;;;;;;5028751;28;20974;-63
2021/06/14 05:00:33;;;;;;;4.27;2.87;;;;;;;;;;5030820;28;20468;-63
2021/06/14 05:03:00;;;;;;;6.50;3.50;;;;;;;;;;5028779;28;20550;-63
2021/06/14 05:05:28;;;;;;;6.83;3.20;;;;;;;;;;5021273;28;20476;-64
2021/06/14 05:07:55;;;;;;;3.90;3.17;;;;;;;;;;5023739;28;20457;-63
2021/06/14 05:10:23;;;;;;;4.80;2.80;;;;;;;;;;5011631;28;20790;-65
2021/06/14 05:12:51;;;;;;;6.43;3.33;;;;;;;;;;5026457;28;20495;-66
2021/06/14 05:15:18;;;;;;;4.43;2.30;;;;;;;;;;5052752;28;20835;-66
2021/06/14 05:17:47;;;;;;;6.83;3.10;;;;;;;;;;5043598;28;20465;-66
2021/06/14 05:20:14;;;;;;;4.70;3.17;;;;;;;;;;5024243;28;20457;-66
2021/06/14 05:22:42;;;;;;;3.43;2.80;;;;;;;;;;5015835;28;20469;-65
2021/06/14 05:25:10;;;;;;;4.90;3.00;;;;;;;;;;5016275;28;20454;-66
2021/06/14 05:27:37;;;;;;;5.30;3.00;;;;;;;;;;5016356;28;20473;-68
2021/06/14 05:30:06;;;;;;;6.53;3.13;;;;;;;;;;5017768;28;20453;-66
2021/06/14 05:32:33;;;;;;;4.40;3.63;;;;;;;;;;5025689;28;20452;-67
2021/06/14 05:35:01;;;;;;;4.77;3.07;;;;;;;;;;5035681;28;20433;-65
2021/06/14 05:37:28;;;;;;;5.10;4.70;;;;;;;;;;5034778;28;20445;-66
2021/06/14 05:39:55;;;;;;;4.67;3.40;;;;;;;;;;5035088;28;20535;-65
2021/06/14 05:42:22;;;;;;;4.47;3.40;;;;;;;;;;5035313;28;20457;-66
2021/06/14 05:44:49;;;;;;;4.37;3.13;;;;;;;;;;5021341;28;20456;-66
2021/06/14 05:47:18;;;;;;;9.63;5.10;;;;;;;;;;5014226;28;20450;-66
2021/06/14 05:49:45;;;;;;;3.50;2.47;;;;;;;;;;5019098;28;20448;-66
2021/06/14 05:52:12;;;;;;;5.93;3.40;;;;;;;;;;5022998;28;20461;-66
2021/06/14 05:54:39;;;;;;;3.53;2.90;;;;;;;;;;5015058;28;20488;-64
2021/06/14 05:57:07;;;;;;;13.77;4.00;;;;;;;;;;5032875;28;20448;-68
2021/06/14 05:59:34;;;;;;;8.00;3.70;;;;;;;;;;5033247;28;20819;-66
2021/06/14 06:02:01;;;;;;;6.10;3.50;;;;;;;;;;5034324;28;20451;-64
2021/06/14 06:04:30;;;;;;;7.27;4.13;;;;;;;;;;5034412;28;20465;-67
2021/06/14 06:06:57;;;;;;;6.03;3.17;;;;;;;;;;5033746;28;20444;-67
2021/06/14 06:09:24;;;;;;;4.40;3.20;;;;;;;;;;5014858;28;20445;-67
2021/06/14 06:11:51;;;;;;;7.80;3.90;;;;;;;;;;5014662;28;20452;-67
2021/06/14 06:14:18;;;;;;;8.80;4.20;;;;;;;;;;5014490;28;21007;-68
2021/06/14 06:16:45;;;;;;;6.07;3.03;;;;;;;;;;5013947;28;20445;-66
2021/06/14 06:19:13;;;;;;;4.63;3.20;;;;;;;;;;5016710;28;20450;-66
2021/06/14 06:21:41;;;;;;;3.80;2.87;;;;;;;;;;5032255;28;20449;-67
2021/06/14 06:24:09;;;;;;;4.10;3.13;;;;;;;;;;5034098;28;20814;-67
2021/06/14 06:26:36;;;;;;;5.33;2.57;;;;;;;;;;5032289;28;20531;-68
2021/06/14 06:29:04;;;;;;;4.83;2.70;;;;;;;;;;5033814;28;20445;-68
2021/06/14 06:31:31;;;;;;;3.63;2.57;;;;;;;;;;5032229;28;20471;-67
2021/06/14 06:33:58;;;;;;;4.20;3.00;;;;;;;;;;5033590;28;20587;-68
2021/06/14 06:36:25;;;;;;;5.27;2.80;;;;;;;;;;5021487;28;20458;-68
2021/06/14 06:38:54;;;;;;;3.43;2.77;;;;;;;;;;5034389;28;20456;-68
2021/06/14 06:41:21;;;;;;;4.37;3.40;;;;;;;;;;5033733;28;20956;-68
2021/06/14 06:43:48;;;;;;;5.27;2.90;;;;;;;;;;5029531;28;20485;-67
2021/06/14 06:46:15;;;;;;;5.77;2.73;;;;;;;;;;5014562;28;20480;-69
2021/06/14 06:48:42;;;;;;;4.70;3.07;;;;;;;;;;5013750;28;20456;-68
2021/06/14 06:51:11;;;;;;;5.83;2.60;;;;;;;;;;5014051;28;20445;-68
2021/06/14 06:53:38;;;;;;;5.30;2.63;;;;;;;;;;5013453;28;20491;-69
2021/06/14 06:56:06;;;;;;;6.13;2.70;;;;;;;;;;5013375;28;20481;-68
2021/06/14 06:58:34;;;;;;;4.10;2.53;;;;;;;;;;5013959;28;20456;-68
2021/06/14 07:01:01;;;;;;;5.37;3.63;;;;;;;;;;5019548;28;20460;-68
2021/06/14 07:03:28;;;;;;;5.60;2.43;;;;;;;;;;5033019;28;20874;-68
2021/06/14 07:05:55;;;;;;;3.53;2.70;;;;;;;;;;5032801;28;20527;-68
2021/06/14 07:08:23;;;;;;;3.37;2.50;;;;;;;;;;5033047;28;20449;-68
2021/06/14 07:10:50;;;;;;;3.60;2.00;;;;;;;;;;5033233;28;20458;-68
2021/06/14 07:13:18;;;;;;;4.90;3.50;;;;;;;;;;5033210;28;20480;-68
2021/06/14 07:15:46;;;;;;;5.30;3.13;;;;;;;;;;5038631;28;20444;-69
2021/06/14 07:18:13;;;;;;;12.17;3.97;;;;;;;;;;5022576;28;20966;-68
2021/06/14 07:20:40;;;;;;;7.80;3.50;;;;;;;;;;5033104;28;20455;-66
2021/06/14 07:23:07;;;;;;;11.60;2.93;;;;;;;;;;5032935;28;20464;-69
2021/06/14 07:25:34;;;;;;;4.93;3.20;;;;;;;;;;5032531;28;20542;-69
2021/06/14 07:28:02;;;;;;;7.10;3.77;;;;;;;;;;5032873;28;20448;-68
2021/06/14 07:30:30;;;;;;;7.30;3.30;;;;;;;;;;5033316;28;20445;-68
2021/06/14 07:32:57;;;;;;;5.47;3.13;;;;;;;;;;5032761;28;20477;-69
2021/06/14 07:35:25;;;;;;;5.13;2.73;;;;;;;;;;5032424;28;20468;-68
2021/06/14 07:37:52;;;;;;;4.37;2.90;;;;;;;;;;5028209;28;20452;-68
2021/06/14 07:40:19;;;;;;;5.00;3.07;;;;;;;;;;5032472;28;20966;-68
2021/06/14 07:42:46;;;;;;;7.63;3.33;;;;;;;;;;5036178;28;20469;-69
2021/06/14 07:45:20;;;;;;;3.60;2.60;;;;;;;;;;5024694;28;20941;-68
2021/06/14 07:47:48;;;;;;;4.27;3.10;;;;;;;;;;5031175;28;20480;-69
2021/06/14 07:50:15;;;;;;;7.90;3.13;;;;;;;;;;5022913;28;20457;-68
2021/06/14 07:52:42;;;;;;;6.63;4.23;;;;;;;;;;5012950;28;20470;-68
2021/06/14 07:55:10;;;;;;;4.80;3.53;;;;;;;;;;5012339;28;20485;-71
2021/06/14 07:57:37;;;;;;;5.40;3.70;;;;;;;;;;5025039;28;20465;-69
2021/06/14 08:00:05;;;;;;;4.87;3.30;;;;;;;;;;5031987;28;20434;-68
2021/06/14 08:02:32;;;;;;;4.10;3.10;;;;;;;;;;5032491;28;20458;-68
2021/06/14 08:05:02;;;;;;;4.20;2.93;;;;;;;;;;5016192;28;20452;-69
2021/06/14 08:07:29;;;;;;;4.90;3.93;;;;;;;;;;5011940;28;20808;-68
2021/06/14 08:10:01;;;;;;;5.33;3.90;;;;;;;;;;5012629;28;20441;-68
2021/06/14 08:12:28;;;;;;;6.07;3.20;;;;;;;;;;5012565;28;20438;-68
2021/06/14 08:14:55;;;;;;;6.20;3.50;;;;;;;;;;5017535;28;21004;-70
2021/06/14 08:17:22;;;;;;;6.10;4.30;;;;;;;;;;5045417;28;20541;-68
2021/06/14 08:19:52;;;;;;;5.67;3.73;;;;;;;;;;5031925;28;20444;-69
2021/06/14 08:22:37;;;;;;;5.30;3.43;;;;;;;;;;5031959;28;20460;-69
2021/06/14 08:25:04;;;;;;;7.13;4.13;;;;;;;;;;5031828;28;21036;-69
2021/06/14 08:27:31;;;;;;;6.60;3.20;;;;;;;;;;5031092;28;20437;-69
2021/06/14 08:29:58;;;;;;;6.33;3.40;;;;;;;;;;5031528;28;20456;-68
2021/06/14 08:32:25;;;;;;;8.50;3.70;;;;;;;;;;5029514;28;20973;-68
2021/06/14 08:34:52;;;;;;;5.50;4.20;;;;;;;;;;5012169;28;20496;-68
2021/06/14 08:37:21;;;;;;;4.87;3.40;;;;;;;;;;5011429;28;20456;-69
2021/06/14 08:39:48;;;;;;;5.90;3.43;;;;;;;;;;5012142;28;20460;-69
2021/06/14 08:42:15;;;;;;;5.70;3.70;;;;;;;;;;5011639;28;20944;-68
2021/06/14 08:44:43;;;;;;;4.10;3.70;;;;;;;;;;5012120;28;20456;-68
2021/06/14 08:47:10;;;;;;;4.70;3.93;;;;;;;;;;5012182;28;20461;-68
2021/06/14 08:49:38;;;;;;;5.93;4.03;;;;;;;;;;5011460;28;20802;-68
2021/06/14 08:52:06;;;;;;;6.33;3.70;;;;;;;;;;5011985;28;20527;-68
2021/06/14 08:54:37;;;;;;;7.97;3.53;;;;;;;;;;5020458;28;20484;-68
2021/06/14 08:57:05;;;;;;;5.60;3.20;;;;;;;;;;5030141;28;20445;-69
2021/06/14 08:59:32;;;;;;;3.60;3.17;;;;;;;;;;5027851;28;20449;-68
2021/06/14 09:02:00;;;;;;;8.70;3.70;;;;;;;;;;5020671;28;20457;-68
2021/06/14 09:04:27;;;;;;;4.97;3.63;;;;;;;;;;5011728;28;20524;-68
2021/06/14 09:06:54;;;;;;;5.13;3.60;;;;;;;;;;5010861;28;20449;-68
2021/06/14 09:09:21;;;;;;;5.60;3.37;;;;;;;;;;5021141;28;20452;-68
2021/06/14 09:11:51;;;;;;;5.73;4.33;;;;;;;;;;5031280;28;20449;-68
2021/06/14 09:14:18;;;;;;;6.70;3.70;;;;;;;;;;5031234;28;20496;-68
2021/06/14 09:16:46;;;;;;;4.50;3.27;;;;;;;;;;5048273;28;20448;-68
2021/06/14 09:19:26;;;;;;;3.83;3.37;;;;;;;;;;5032110;28;21015;-68
2021/06/14 09:21:56;;;;;;;4.37;3.60;;;;;;;;;;5031312;28;20464;-68
2021/06/14 09:24:24;;;;;;;3.57;3.20;;;;;;;;;;5029601;28;20542;-68
2021/06/14 09:26:53;;;;;;;4.87;3.80;;;;;;;;;;5030391;28;20452;-68
2021/06/14 09:29:26;;;;;;;4.70;3.13;;;;;;;;;;5031229;28;20449;-67
2021/06/14 09:31:54;;;;;;;5.67;3.43;;;;;;;;;;5031383;28;20469;-68
2021/06/14 09:34:31;;;;;;;4.90;3.93;;;;;;;;;;5030670;28;20875;-68
2021/06/14 09:36:59;;;;;;;5.40;3.63;;;;;;;;;;5030329;28;20433;-68
2021/06/14 09:39:27;;;;;;;6.67;4.10;;;;;;;;;;5028587;28;20545;-69
2021/06/14 09:41:55;;;;;;;4.60;3.60;;;;;;;;;;5020048;28;20798;-68
2021/06/14 09:44:29;;;;;;;5.93;3.77;;;;;;;;;;5011392;28;20465;-68
2021/06/14 09:47:03;;;;;;;11.00;3.83;;;;;;;;;;5029850;28;20464;-68
2021/06/14 09:49:30;;;;;;;4.87;3.77;;;;;;;;;;5020539;28;20457;-68
2021/06/14 09:51:57;;;;;;;4.57;3.30;;;;;;;;;;5012270;28;20457;-68
2021/06/14 09:54:28;;;;;;;7.00;3.87;;;;;;;;;;5011310;28;20488;-68
2021/06/14 09:56:57;;;;;;;4.07;3.27;;;;;;;;;;5023457;28;20452;-68
2021/06/14 09:59:27;;;;;;;5.80;3.60;;;;;;;;;;5030216;28;20456;-70
2021/06/14 10:02:04;;;;;;;8.63;3.60;;;;;;;;;;5031937;28;20456;-67
2021/06/14 10:04:32;;;;;;;4.13;3.47;;;;;;;;;;5034305;28;20460;-68
2021/06/14 10:07:09;;;;;;;5.87;3.50;;;;;;;;;;5017600;28;20445;-68
2021/06/14 10:09:40;;;;;;;5.03;3.00;;;;;;;;;;5014627;28;20438;-68
2021/06/14 10:12:18;;;;;;;4.37;3.40;;;;;;;;;;5025724;28;20502;-68
2021/06/14 10:14:55;;;;;;;3.50;3.20;;;;;;;;;;5033075;28;20472;-68
2021/06/14 10:17:35;;;;;;;7.60;3.50;;;;;;;;;;5031331;28;20476;-68
2021/06/14 10:20:09;;;;;;;5.73;3.00;;;;;;;;;;5030982;28;20453;-68
2021/06/14 10:22:36;;;;;;;4.90;3.40;;;;;;;;;;5018317;28;20903;-68
2021/06/14 10:25:04;;;;;;;5.50;3.13;;;;;;;;;;5034377;28;20445;-68
2021/06/14 10:27:33;;;;;;;5.37;3.40;;;;;;;;;;5033445;28;20483;-68
2021/06/14 10:30:00;;;;;;;4.50;3.03;;;;;;;;;;5033503;28;20461;-68
2021/06/14 10:32:27;;;;;;;5.00;3.50;;;;;;;;;;5032650;28;20459;-68
2021/06/14 10:34:55;;;;;;;3.33;2.97;;;;;;;;;;5049846;22;20489;-67
2021/06/14 10:37:22;;;;;;;5.23;3.10;;;;;;;;;;5031703;28;20460;-66
2021/06/14 10:39:52;;;;;;;3.47;2.70;;;;;;;;;;5033549;28;20801;-67
2021/06/14 10:42:19;;;;;;;5.30;2.97;;;;;;;;;;5033672;28;20940;-67
2021/06/14 10:44:48;;;;;;;5.47;2.90;;;;;;;;;;5033105;28;20475;-66
2021/06/14 10:47:15;;;;;;;4.80;2.43;;;;;;;;;;5032330;28;20483;-67
2021/06/14 10:49:43;;;;;;;3.07;2.60;;;;;;;;;;5033181;28;20456;-67
2021/06/14 10:52:10;;;;;;;4.77;2.90;;;;;;;;;;5034018;28;20554;-67
2021/06/14 10:54:39;;;;;;;4.23;2.40;;;;;;;;;;5033113;28;20487;-67
2021/06/14 10:57:09;;;;;;;3.43;2.37;;;;;;;;;;5032399;28;20457;-67
2021/06/14 10:59:39;;;;;;;5.00;3.10;;;;;;;;;;5032906;28;20507;-67
2021/06/14 11:02:08;;;;;;;4.10;2.80;;;;;;;;;;5030802;28;20471;-67
2021/06/14 11:04:35;;;;;;;4.20;2.73;;;;;;;;;;5033422;28;20611;-67
2021/06/14 11:07:03;;;;;;;5.90;2.93;;;;;;;;;;5013030;28;20471;-66
2021/06/14 11:09:39;;;;;;;3.80;2.87;;;;;;;;;;5023293;28;20811;-67
2021/06/14 11:12:08;;;;;;;3.30;2.70;;;;;;;;;;5032514;28;20456;-67
2021/06/14 11:14:36;;;;;;;3.43;2.60;;;;;;;;;;5031924;28;20477;-67
2021/06/14 11:17:17;;;;;;;5.80;3.07;;;;;;;;;;5032091;28;20467;-67
2021/06/14 11:19:44;;;;;;;3.63;2.93;;;;;;;;;;5032915;28;20939;-67
2021/06/14 11:22:11;;;;;;;5.03;3.20;;;;;;;;;;5033250;28;20449;-67
2021/06/14 11:24:40;;;;;;;4.00;3.10;;;;;;;;;;5033230;28;20477;-67
2021/06/14 11:27:09;;;;;;;3.60;2.73;;;;;;;;;;5032254;28;20448;-67
2021/06/14 11:29:43;;;;;;;3.73;2.73;;;;;;;;;;5032472;28;20463;-67
2021/06/14 11:32:15;;;;;;;7.00;2.67;;;;;;;;;;5033307;28;20495;-64
2021/06/14 11:34:44;;;;;;;4.80;3.00;;;;;;;;;;5024199;28;20635;-64
2021/06/14 11:37:11;;;;;;;4.80;2.90;;;;;;;;;;5031761;28;20782;-64
2021/06/14 11:39:38;;;;;;;3.50;2.63;;;;;;;;;;5032271;28;21326;-64
2021/06/14 11:42:09;;;;;;;4.30;2.50;;;;;;;;;;5032509;28;20449;-64
2021/06/14 11:44:37;;;;;;;4.57;2.03;;;;;;;;;;5032392;28;20556;-64
2021/06/14 11:47:13;;;;;;;4.43;3.00;;;;;;;;;;5031544;28;20461;-64
2021/06/14 11:49:40;;;;;;;3.60;2.73;;;;;;;;;;5032450;28;20456;-64
2021/06/14 11:52:18;;;;;;;3.53;2.60;;;;;;;;;;5032392;28;20457;-64
2021/06/14 11:54:45;;;;;;;3.40;2.90;;;;;;;;;;5031351;28;20840;-64
2021/06/14 11:57:12;;;;;;;5.40;3.30;;;;;;;;;;5011908;28;20532;-64
2021/06/14 11:59:40;;;;;;;2.90;2.53;;;;;;;;;;5012532;28;20824;-64
2021/06/14 12:02:18;;;;;;;3.30;2.37;;;;;;;;;;5012616;28;20492;-64
2021/06/14 12:04:45;;;;;;;3.47;2.33;;;;;;;;;;5012629;28;20469;-64
2021/06/14 12:07:12;;;;;;;3.63;3.00;;;;;;;;;;5012054;28;20940;-64
2021/06/14 12:09:41;;;;;;;4.90;2.70;;;;;;;;;;5012020;28;20438;-64
2021/06/14 12:12:09;;;;;;;3.80;2.50;;;;;;;;;;5013984;28;20448;-64
2021/06/14 12:14:36;;;;;;;3.10;2.60;;;;;;;;;;5014522;28;20472;-64
2021/06/14 12:17:05;;;;;;;2.93;2.53;;;;;;;;;;5031140;28;21022;-64
2021/06/14 12:19:32;;;;;;;5.20;3.00;;;;;;;;;;5032167;28;20460;-64
2021/06/14 12:22:02;;;;;;;4.53;3.30;;;;;;;;;;5031993;28;20453;-64
2021/06/14 12:24:31;;;;;;;3.43;2.50;;;;;;;;;;5031128;28;21024;-64
2021/06/14 12:27:01;;;;;;;3.03;2.40;;;;;;;;;;5031359;28;20449;-64
2021/06/14 12:29:28;;;;;;;2.63;2.30;;;;;;;;;;5031993;28;20503;-64
2021/06/14 12:32:06;;;;;;;4.60;2.93;;;;;;;;;;5031546;28;20830;-64
2021/06/14 12:34:34;;;;;;;4.23;2.30;;;;;;;;;;5031329;28;20484;-64
2021/06/14 12:37:03;;;;;;;3.37;2.30;;;;;;;;;;5031013;28;20567;-64
2021/06/14 12:39:31;;;;;;;3.50;2.30;;;;;;;;;;5031916;28;20452;-64
2021/06/14 12:41:58;;;;;;;4.17;2.53;;;;;;;;;;5031504;28;20931;-64
2021/06/14 12:44:27;;;;;;;3.43;2.37;;;;;;;;;;5031655;28;20472;-64
2021/06/14 12:46:54;;;;;;;3.13;2.20;;;;;;;;;;5030702;28;20459;-63
2021/06/14 12:49:22;;;;;;;3.50;2.10;;;;;;;;;;5031944;28;20447;-64
2021/06/14 12:51:49;;;;;;;3.77;2.63;;;;;;;;;;5031801;28;20502;-64
2021/06/14 12:54:16;;;;;;;4.13;2.50;;;;;;;;;;5031226;28;20854;-64
2021/06/14 12:56:50;;;;;;;4.00;2.47;;;;;;;;;;5030853;28;20480;-64
2021/06/14 12:59:17;;;;;;;3.63;2.33;;;;;;;;;;5031688;28;20448;-64
2021/06/14 13:01:46;;;;;;;4.40;2.53;;;;;;;;;;5031341;28;20464;-64
2021/06/14 13:04:13;;;;;;;5.13;2.60;;;;;;;;;;5031275;28;20486;-64
2021/06/14 13:06:41;;;;;;;3.03;2.47;;;;;;;;;;5030574;28;20454;-64
2021/06/14 13:09:10;;;;;;;3.40;2.37;;;;;;;;;;5031521;28;20503;-64
2021/06/14 13:11:47;;;;;;;4.03;2.70;;;;;;;;;;5031516;28;20455;-64
2021/06/14 13:14:14;;;;;;;5.00;2.70;;;;;;;;;;5030652;28;20480;-64
2021/06/14 13:16:47;;;;;;;3.10;2.70;;;;;;;;;;5030690;28;20483;-64
2021/06/14 13:19:14;;;;;;;4.43;2.40;;;;;;;;;;5031686;28;20838;-64
2021/06/14 13:21:41;;;;;;;4.20;2.50;;;;;;;;;;5031173;28;20462;-64
2021/06/14 13:24:10;;;;;;;3.80;2.33;;;;;;;;;;5031325;28;20476;-64
2021/06/14 13:26:41;;;;;;;2.80;2.10;;;;;;;;;;5030619;28;20454;-64
2021/06/14 13:29:15;;;;;;;3.77;2.50;;;;;;;;;;5030685;28;20536;-64
2021/06/14 13:31:43;;;;;;;2.93;2.53;;;;;;;;;;5011672;28;20445;-64
2021/06/14 13:34:22;;;;;;;3.57;2.40;;;;;;;;;;5011160;28;20484;-64
2021/06/14 13:36:50;;;;;;;4.00;1.67;;;;;;;;;;5013868;28;20572;-64
2021/06/14 13:39:18;;;;;;;4.00;2.37;;;;;;;;;;5015415;28;20457;-64
2021/06/14 13:41:47;;;;;;;3.07;2.23;;;;;;;;;;5015109;28;20454;-64
2021/06/14 13:44:15;;;;;;;3.40;2.60;;;;;;;;;;5019389;28;20483;-64
2021/06/14 13:46:43;;;;;;;3.57;2.70;;;;;;;;;;5033993;28;20531;-64
2021/06/14 13:49:12;;;;;;;4.37;2.57;;;;;;;;;;5034933;28;20444;-64
2021/06/14 13:51:39;;;;;;;3.10;2.63;;;;;;;;;;5034944;28;20451;-64
2021/06/14 13:54:14;;;;;;;3.50;2.30;;;;;;;;;;5034892;28;20470;-64
2021/06/14 13:56:46;;;;;;;3.70;2.80;;;;;;;;;;5033798;28;20486;-64
2021/06/14 13:59:18;;;;;;;3.90;2.53;;;;;;;;;;5034683;28;20441;-64
2021/06/14 14:01:45;;;;;;;3.07;2.47;;;;;;;;;;5034571;28;20436;-63
2021/06/14 14:04:17;;;;;;;4.30;2.40;;;;;;;;;;5034558;28;20848;-64
2021/06/14 14:06:44;;;;;;;5.23;2.80;;;;;;;;;;5034070;28;20455;-63
2021/06/14 14:09:12;;;;;;;3.57;2.60;;;;;;;;;;5034305;28;20448;-64
2021/06/14 14:11:39;;;;;;;3.20;2.27;;;;;;;;;;5034556;28;20453;-64
2021/06/14 14:14:07;;;;;;;4.97;2.67;;;;;;;;;;5034627;28;20468;-64
2021/06/14 14:16:34;;;;;;;3.50;2.53;;;;;;;;;;5030314;28;21067;-63
2021/06/14 14:19:03;;;;;;;6.30;3.20;;;;;;;;;;5034092;28;20457;-64
2021/06/14 14:21:32;;;;;;;2.83;2.57;;;;;;;;;;5034045;28;20452;-64
2021/06/14 14:24:02;;;;;;;3.53;2.83;;;;;;;;;;5034004;28;20468;-64
2021/06/14 14:26:29;;;;;;;3.07;2.43;;;;;;;;;;5033594;28;20865;-64
2021/06/14 14:28:58;;;;;;;5.43;3.17;;;;;;;;;;5033751;28;20826;-64
2021/06/14 14:31:26;;;;;;;3.40;3.00;;;;;;;;;;5034273;28;20460;-64
2021/06/14 14:33:53;;;;;;;3.03;2.33;;;;;;;;;;5033787;28;20523;-64
2021/06/14 14:36:20;;;;;;;3.70;2.60;;;;;;;;;;5033237;28;20682;-64
2021/06/14 14:38:51;;;;;;;3.63;2.73;;;;;;;;;;5033269;28;20801;-64
2021/06/14 14:41:20;;;;;;;4.30;2.90;;;;;;;;;;5034063;28;20448;-64
2021/06/14 14:43:48;;;;;;;3.30;2.70;;;;;;;;;;5033555;28;20997;-64
2021/06/14 14:46:15;;;;;;;4.60;2.23;;;;;;;;;;5032600;28;20966;-64
2021/06/14 14:48:42;;;;;;;3.80;2.70;;;;;;;;;;5033867;28;20457;-64
2021/06/14 14:51:10;;;;;;;5.70;2.93;;;;;;;;;;5033359;28;20444;-64